Time;durP1;ratioP1;P1;durP2;ratioP2;P2;SDS_P1;SDS_P2;PMS_P1;PMS_P2;Temp;Humidity;BMP_temperature;BMP_pressure;BME280_temperature;BME280_humidity;BME280_pressure;Samples;Min_cycle;Max_cycle;Signal;HPM_P1;HPM_P2
2023/12/13 00:01:39;;;;;;;19.30;14.10;;;;;;;20.76;34.05;100687.19;102962;1299;61467;-80
2023/12/13 00:04:04;;;;;;;19.60;13.80;;;;;;;20.74;34.06;100695.17;103300;1293;61457;-80
2023/12/13 00:06:31;;;;;;;19.60;14.00;;;;;;;20.74;34.10;100704.15;103109;1299;61414;-80
2023/12/13 00:08:57;;;;;;;19.00;14.00;;;;;;;20.72;34.14;100694.04;102946;1296;62262;-81
2023/12/13 00:11:23;;;;;;;19.60;14.00;;;;;;;20.71;34.26;100701.64;103042;1294;61505;-81
2023/12/13 00:13:48;;;;;;;18.60;13.20;;;;;;;20.71;34.00;100695.98;102846;1296;61224;-81
2023/12/13 00:16:14;;;;;;;20.90;14.80;;;;;;;20.70;34.15;100701.20;103097;1294;61381;-81
2023/12/13 00:18:40;;;;;;;19.40;13.50;;;;;;;20.69;34.17;100691.61;103399;1298;61499;-80
2023/12/13 00:21:06;;;;;;;17.30;13.60;;;;;;;20.68;34.25;100697.59;103181;1294;61317;-79
2023/12/13 00:23:36;;;;;;;17.60;13.50;;;;;;;20.67;34.26;100699.77;103043;1293;74447;-81
2023/12/13 00:26:02;;;;;;;18.50;13.60;;;;;;;20.66;34.12;100697.33;103220;1298;61402;-81
2023/12/13 00:28:28;;;;;;;16.90;13.60;;;;;;;20.66;34.23;100697.20;103211;1294;61331;-80
2023/12/13 00:30:54;;;;;;;18.70;13.70;;;;;;;20.65;34.16;100695.27;103227;1294;61355;-80
2023/12/13 00:33:19;;;;;;;18.00;13.20;;;;;;;20.64;34.10;100690.16;102990;1299;61393;-81
2023/12/13 00:35:45;;;;;;;17.40;13.00;;;;;;;20.63;34.21;100691.10;103266;1298;61404;-80
2023/12/13 00:38:11;;;;;;;18.70;13.80;;;;;;;20.63;34.18;100691.66;102902;1296;61402;-80
2023/12/13 00:40:36;;;;;;;19.90;13.70;;;;;;;20.62;34.23;100699.60;103008;1293;61774;-80
2023/12/13 00:43:02;;;;;;;20.90;14.30;;;;;;;20.61;34.26;100701.25;103009;1294;61897;-81
2023/12/13 00:45:28;;;;;;;19.50;14.40;;;;;;;20.61;34.18;100692.67;103140;1295;61297;-81
2023/12/13 00:47:54;;;;;;;19.90;13.90;;;;;;;20.61;34.25;100687.52;102932;1299;61408;-80
2023/12/13 00:50:20;;;;;;;18.60;13.50;;;;;;;20.60;34.15;100690.79;102954;1296;63031;-80
2023/12/13 00:52:45;;;;;;;18.80;13.60;;;;;;;20.59;34.16;100697.08;103092;1299;61358;-81
2023/12/13 00:55:11;;;;;;;19.10;13.70;;;;;;;20.59;34.22;100703.89;103139;1294;62222;-81
2023/12/13 00:57:37;;;;;;;21.00;14.80;;;;;;;20.60;34.14;100698.48;102902;1296;61611;-80
2023/12/13 01:00:03;;;;;;;19.20;14.40;;;;;;;20.60;34.14;100692.59;102913;1295;61490;-80
2023/12/13 01:02:28;;;;;;;21.40;14.30;;;;;;;20.60;34.19;100689.30;102921;1301;61393;-81
2023/12/13 01:04:54;;;;;;;20.90;14.30;;;;;;;20.62;34.05;100682.40;102970;1299;61397;-81
2023/12/13 01:07:20;;;;;;;19.60;13.50;;;;;;;20.64;34.12;100673.84;102983;1299;61524;-80
2023/12/13 01:09:45;;;;;;;19.60;14.70;;;;;;;20.66;34.08;100672.64;102858;1296;74312;-82
2023/12/13 01:12:13;;;;;;;19.10;13.10;;;;;;;20.69;34.00;100666.23;102966;1295;61453;-81
2023/12/13 01:14:39;;;;;;;18.70;13.70;;;;;;;20.71;34.10;100661.98;102941;1295;61400;-80
2023/12/13 01:17:05;;;;;;;18.60;13.20;;;;;;;20.73;33.97;100655.76;102905;1295;61387;-82
2023/12/13 01:19:30;;;;;;;20.00;13.20;;;;;;;20.75;34.05;100650.22;102947;1296;61431;-81
2023/12/13 01:21:56;;;;;;;18.90;13.30;;;;;;;20.77;33.99;100646.33;102921;1295;61376;-81
2023/12/13 01:24:22;;;;;;;17.70;13.50;;;;;;;20.79;34.08;100645.63;103044;1296;62984;-81
2023/12/13 01:26:47;;;;;;;18.00;13.50;;;;;;;20.82;33.95;100644.16;103027;1296;61596;-82
2023/12/13 01:29:13;;;;;;;19.10;13.20;;;;;;;20.84;33.94;100638.46;102940;1296;72525;-82
2023/12/13 01:31:39;;;;;;;17.30;13.30;;;;;;;20.87;33.87;100632.02;102950;1299;63092;-81
2023/12/13 01:34:04;;;;;;;17.00;12.60;;;;;;;20.90;33.90;100634.33;102961;1301;61288;-81
2023/12/13 01:36:30;;;;;;;18.30;13.00;;;;;;;20.91;33.92;100626.14;102892;1296;61391;-81
2023/12/13 01:38:56;;;;;;;20.20;13.30;;;;;;;20.93;33.85;100620.33;102899;1295;61470;-82
2023/12/13 01:41:21;;;;;;;18.30;13.20;;;;;;;20.95;33.85;100613.02;102984;1298;61432;-82
2023/12/13 01:43:47;;;;;;;20.20;13.40;;;;;;;20.97;33.74;100615.23;102970;1296;74299;-82
2023/12/13 01:46:15;;;;;;;18.20;12.60;;;;;;;20.98;33.79;100614.23;102942;1296;62066;-82
2023/12/13 01:48:41;;;;;;;18.10;13.30;;;;;;;21.00;33.83;100606.77;102972;1296;63018;-82
2023/12/13 01:51:07;;;;;;;19.00;12.90;;;;;;;21.01;33.81;100599.16;102786;1296;61374;-82
2023/12/13 01:53:33;;;;;;;19.60;12.90;;;;;;;21.02;33.73;100600.00;102948;1296;61396;-81
2023/12/13 01:55:59;;;;;;;19.30;13.20;;;;;;;21.03;33.67;100609.18;102964;1294;61535;-82
2023/12/13 01:58:24;;;;;;;18.70;13.30;;;;;;;21.04;33.64;100612.71;102918;1295;61367;-82
2023/12/13 02:00:50;;;;;;;17.60;12.80;;;;;;;21.05;33.62;100609.57;102991;1295;62016;-80
2023/12/13 02:03:16;;;;;;;16.00;12.10;;;;;;;21.06;33.65;100610.73;102960;1296;61647;-82
2023/12/13 02:05:43;;;;;;;17.30;12.40;;;;;;;21.07;33.68;100611.39;102875;1296;74496;-79
2023/12/13 02:08:11;;;;;;;18.20;13.00;;;;;;;21.08;33.64;100614.92;102957;1296;61419;-80
2023/12/13 02:10:37;;;;;;;18.60;12.40;;;;;;;21.08;33.58;100623.29;102982;1296;61592;-81
2023/12/13 02:13:02;;;;;;;17.30;12.20;;;;;;;21.10;33.58;100629.28;102913;1295;62001;-81
2023/12/13 02:15:28;;;;;;;17.10;12.40;;;;;;;21.10;33.54;100634.97;102772;1296;61324;-81
2023/12/13 02:17:54;;;;;;;18.50;12.70;;;;;;;21.11;33.59;100643.30;102907;1295;61730;-81
2023/12/13 02:20:20;;;;;;;18.50;12.60;;;;;;;21.12;33.53;100648.45;102978;1294;61342;-80
2023/12/13 02:22:46;;;;;;;19.40;12.20;;;;;;;21.12;33.44;100641.64;102935;1296;61417;-81
2023/12/13 02:25:38;;;;;;;17.90;12.30;;;;;;;21.13;33.47;100642.64;102885;1298;72307;-80
2023/12/13 02:28:04;;;;;;;17.20;11.80;;;;;;;21.14;33.67;100635.98;102985;1296;74515;-81
2023/12/13 02:30:30;;;;;;;16.30;12.10;;;;;;;21.14;33.55;100629.67;102958;1296;61413;-81
2023/12/13 02:32:56;;;;;;;16.50;12.00;;;;;;;21.15;33.58;100628.04;102916;1296;62172;-81
2023/12/13 02:35:22;;;;;;;19.30;12.30;;;;;;;21.15;33.47;100630.65;102940;1296;61350;-81
2023/12/13 02:37:49;;;;;;;17.30;12.90;;;;;;;21.16;33.56;100633.30;102879;1295;61396;-81
2023/12/13 02:40:18;;;;;;;17.10;11.70;;;;;;;21.16;33.37;100623.45;102957;1295;61502;-81
2023/12/13 02:42:44;;;;;;;16.40;12.50;;;;;;;21.16;33.36;100622.19;102935;1295;61392;-80
2023/12/13 02:45:15;;;;;;;17.30;11.80;;;;;;;21.17;33.32;100625.00;102859;1295;61624;-81
2023/12/13 02:47:43;;;;;;;16.30;12.20;;;;;;;21.17;33.39;100623.59;102949;1296;75601;-81
2023/12/13 02:50:12;;;;;;;15.60;11.40;;;;;;;21.17;33.33;100620.68;102990;1295;61405;-79
2023/12/13 02:52:39;;;;;;;17.40;12.50;;;;;;;21.17;33.37;100624.09;102944;1296;61429;-80
2023/12/13 02:55:06;;;;;;;14.60;11.20;;;;;;;21.17;33.42;100620.67;102912;1298;61317;-80
2023/12/13 02:57:31;;;;;;;16.30;12.10;;;;;;;21.18;33.32;100612.95;103198;1296;73999;-81
2023/12/13 02:59:57;;;;;;;15.80;11.50;;;;;;;21.18;33.37;100608.09;103023;1293;61587;-81
2023/12/13 03:02:23;;;;;;;15.90;11.50;;;;;;;21.19;33.28;100604.66;103070;1294;62422;-81
2023/12/13 03:04:48;;;;;;;14.70;11.10;;;;;;;21.19;33.35;100594.94;103007;1299;61380;-80
2023/12/13 03:07:14;;;;;;;16.70;11.70;;;;;;;21.20;33.48;100595.43;102941;1296;61393;-81
2023/12/13 03:09:40;;;;;;;16.50;12.40;;;;;;;21.20;33.32;100596.48;102800;1294;61428;-81
2023/12/13 03:12:06;;;;;;;16.00;11.70;;;;;;;21.20;33.33;100586.64;102864;1296;61355;-81
2023/12/13 03:14:32;;;;;;;15.90;11.60;;;;;;;21.21;33.39;100582.09;103033;1294;61394;-80
2023/12/13 03:16:58;;;;;;;15.10;11.60;;;;;;;21.21;33.34;100576.72;103144;1293;61946;-80
2023/12/13 03:19:24;;;;;;;15.90;11.80;;;;;;;21.22;33.24;100581.67;103098;1294;61412;-80
2023/12/13 03:21:50;;;;;;;14.00;10.80;;;;;;;21.22;33.34;100584.53;103009;1294;61383;-81
2023/12/13 03:24:16;;;;;;;15.10;11.80;;;;;;;21.22;33.24;100584.54;103045;1297;61424;-82
2023/12/13 03:26:41;;;;;;;16.10;11.80;;;;;;;21.22;33.29;100585.58;103197;1293;61297;-81
2023/12/13 03:29:09;;;;;;;15.90;12.10;;;;;;;21.23;33.19;100595.20;103206;1297;61441;-82
2023/12/13 03:31:35;;;;;;;15.90;11.90;;;;;;;21.23;33.27;100592.30;103163;1295;61545;-82
2023/12/13 03:34:01;;;;;;;16.20;11.30;;;;;;;21.23;33.20;100574.92;102991;1295;61348;-82
2023/12/13 03:36:26;;;;;;;14.30;11.20;;;;;;;21.24;33.13;100575.60;102916;1296;61524;-81
2023/12/13 03:38:52;;;;;;;14.50;10.70;;;;;;;21.24;33.25;100572.17;103276;1294;71426;-80
2023/12/13 03:41:18;;;;;;;13.10;10.10;;;;;;;21.25;33.31;100561.95;102949;1293;61402;-80
2023/12/13 03:43:44;;;;;;;14.50;11.10;;;;;;;21.24;33.29;100552.34;102889;1296;62176;-80
2023/12/13 03:46:09;;;;;;;13.90;10.90;;;;;;;21.24;33.24;100551.02;103170;1295;61398;-80
2023/12/13 03:48:35;;;;;;;16.40;11.30;;;;;;;21.25;33.08;100546.02;102948;1299;61397;-81
2023/12/13 03:51:04;;;;;;;15.40;11.40;;;;;;;21.25;33.26;100537.05;103220;1293;61336;-81
2023/12/13 03:53:31;;;;;;;14.30;11.00;;;;;;;21.25;33.21;100532.91;103094;1297;74512;-81
2023/12/13 03:56:06;;;;;;;14.00;10.20;;;;;;;21.25;33.04;100533.98;102825;1296;61327;-81
2023/12/13 03:58:32;;;;;;;14.90;11.20;;;;;;;21.25;33.15;100542.71;102966;1294;61406;-81
2023/12/13 04:01:00;;;;;;;15.00;10.70;;;;;;;21.26;33.08;100557.73;103128;1293;61398;-81
2023/12/13 04:03:25;;;;;;;14.90;10.80;;;;;;;21.27;33.19;100565.02;102886;1299;74624;-82
2023/12/13 04:05:51;;;;;;;14.20;10.60;;;;;;;21.26;33.06;100558.26;103005;1297;61413;-82
2023/12/13 04:08:17;;;;;;;16.20;11.40;;;;;;;21.26;33.12;100553.26;103033;1294;61323;-82
2023/12/13 04:10:42;;;;;;;15.50;11.20;;;;;;;21.26;33.04;100551.79;103129;1293;61338;-82
2023/12/13 04:13:08;;;;;;;13.80;10.70;;;;;;;21.26;33.10;100544.84;102860;1296;61673;-81
2023/12/13 04:15:34;;;;;;;15.60;11.10;;;;;;;21.26;33.14;100535.31;103078;1294;61450;-82
2023/12/13 04:17:59;;;;;;;14.50;10.80;;;;;;;21.28;32.99;100536.70;102879;1293;61284;-81
2023/12/13 04:20:25;;;;;;;14.10;10.90;;;;;;;21.27;33.08;100535.81;102893;1294;61463;-82
2023/12/13 04:22:51;;;;;;;14.30;11.30;;;;;;;21.28;33.05;100538.28;102960;1296;71062;-81
2023/12/13 04:25:16;;;;;;;14.60;11.20;;;;;;;21.27;32.87;100537.42;103161;1293;61302;-81
2023/12/13 04:27:43;;;;;;;14.90;11.40;;;;;;;21.28;33.05;100538.42;103080;1294;61334;-82
2023/12/13 04:30:11;;;;;;;13.90;11.20;;;;;;;21.28;33.03;100540.41;102939;1296;61505;-81
2023/12/13 04:32:38;;;;;;;15.20;11.20;;;;;;;21.28;33.01;100533.96;102924;1295;61537;-81
2023/12/13 04:35:05;;;;;;;14.90;11.20;;;;;;;21.28;33.00;100526.25;102907;1300;61319;-81
2023/12/13 04:37:32;;;;;;;16.70;11.90;;;;;;;21.29;32.98;100530.88;102867;1296;61211;-81
2023/12/13 04:39:58;;;;;;;14.60;10.90;;;;;;;21.29;33.08;100532.82;103039;1296;62475;-82
2023/12/13 04:42:24;;;;;;;16.20;11.80;;;;;;;21.29;32.97;100531.38;102978;1298;61405;-80
2023/12/13 04:44:50;;;;;;;16.20;11.40;;;;;;;21.29;32.88;100528.15;102878;1296;61400;-81
2023/12/13 04:47:17;;;;;;;14.40;11.20;;;;;;;21.30;32.93;100529.75;103016;1294;61419;-81
2023/12/13 04:49:45;;;;;;;15.30;11.80;;;;;;;21.30;33.01;100526.33;103168;1293;62375;-82
2023/12/13 04:52:11;;;;;;;15.40;12.00;;;;;;;21.29;33.06;100526.16;102943;1296;61374;-81
2023/12/13 04:54:37;;;;;;;16.70;11.90;;;;;;;21.30;32.94;100536.70;102932;1293;61405;-81
2023/12/13 04:57:04;;;;;;;15.40;11.60;;;;;;;21.30;32.81;100537.79;103003;1298;61435;-82
2023/12/13 04:59:30;;;;;;;14.40;11.30;;;;;;;21.30;32.88;100540.65;102909;1295;61454;-82
2023/12/13 05:01:56;;;;;;;16.00;11.80;;;;;;;21.30;32.87;100540.08;102966;1299;61404;-81
2023/12/13 05:04:22;;;;;;;15.40;12.10;;;;;;;21.30;32.85;100537.41;102987;1295;61367;-83
2023/12/13 05:06:48;;;;;;;14.20;11.40;;;;;;;21.29;32.88;100539.96;103164;1294;61377;-81
2023/12/13 05:09:13;;;;;;;15.50;11.70;;;;;;;21.29;32.84;100543.75;103050;1296;61446;-82
2023/12/13 05:11:39;;;;;;;16.50;11.90;;;;;;;21.28;32.91;100550.58;103004;1295;61396;-81
2023/12/13 05:14:04;;;;;;;15.90;11.50;;;;;;;21.29;32.77;100564.70;103036;1295;61368;-82
2023/12/13 05:16:30;;;;;;;16.10;11.40;;;;;;;21.28;32.83;100570.98;102990;1295;61471;-82
2023/12/13 05:18:56;;;;;;;14.70;11.60;;;;;;;21.28;32.67;100566.89;102894;1299;61877;-82
2023/12/13 05:21:21;;;;;;;14.50;11.60;;;;;;;21.28;32.64;100558.86;103013;1295;61391;-82
2023/12/13 05:23:48;;;;;;;15.20;11.30;;;;;;;21.27;32.74;100554.40;103239;1295;61227;-83
2023/12/13 05:26:13;;;;;;;15.70;11.40;;;;;;;21.27;32.70;100547.09;102801;1295;62076;-83
2023/12/13 05:28:39;;;;;;;15.90;11.70;;;;;;;21.26;32.73;100539.84;102951;1295;61502;-83
2023/12/13 05:31:05;;;;;;;14.80;11.90;;;;;;;21.24;32.59;100539.08;102738;1295;61320;-80
2023/12/13 05:33:31;;;;;;;18.20;13.30;;;;;;;21.21;32.65;100547.16;102982;1294;61969;-82
2023/12/13 05:35:56;;;;;;;14.20;10.00;;;;;;;21.19;32.50;100548.45;103288;1296;61323;-82
2023/12/13 05:38:22;;;;;;;12.30;9.40;;;;;;;21.16;32.56;100539.69;103156;1298;72389;-80
2023/12/13 05:40:48;;;;;;;14.00;10.50;;;;;;;21.15;32.58;100534.80;102929;1296;61535;-84
2023/12/13 05:43:13;;;;;;;15.90;11.40;;;;;;;21.12;32.56;100541.25;103301;1295;61295;-80
2023/12/13 05:45:39;;;;;;;15.50;11.70;;;;;;;21.09;32.45;100546.30;103503;1295;61367;-80
2023/12/13 05:48:05;;;;;;;15.10;12.10;;;;;;;21.06;32.41;100550.11;103864;1296;61523;-82
2023/12/13 05:50:31;;;;;;;15.30;12.60;;;;;;;21.03;32.29;100543.70;103445;1296;61360;-83
2023/12/13 05:52:57;;;;;;;17.30;12.70;;;;;;;21.01;32.34;100532.80;104165;1295;74539;-81
2023/12/13 05:55:22;;;;;;;18.10;13.40;;;;;;;20.96;32.13;100529.35;104531;1295;61259;-82
2023/12/13 05:57:48;;;;;;;21.40;13.30;;;;;;;20.92;32.02;100532.52;103993;1294;61283;-81
2023/12/13 06:00:14;;;;;;;22.70;13.30;;;;;;;20.89;32.01;100537.42;104062;1295;61361;-83
2023/12/13 06:02:40;;;;;;;18.80;13.20;;;;;;;20.84;32.08;100536.68;104116;1296;62009;-80
2023/12/13 06:05:06;;;;;;;17.80;12.70;;;;;;;20.80;32.03;100530.38;104187;1296;61396;-82
2023/12/13 06:07:32;;;;;;;18.50;12.90;;;;;;;20.77;31.95;100526.13;104448;1295;61313;-81
2023/12/13 06:09:58;;;;;;;18.40;12.20;;;;;;;20.76;31.94;100541.58;103897;1295;61369;-83
2023/12/13 06:12:23;;;;;;;17.50;13.50;;;;;;;20.76;31.93;100547.30;103481;1295;72603;-80
2023/12/13 06:14:49;;;;;;;15.20;12.30;;;;;;;20.76;31.91;100535.31;103928;1296;59801;-81
2023/12/13 06:17:15;;;;;;;16.20;12.20;;;;;;;20.78;31.79;100522.52;103326;1293;60126;-80
2023/12/13 06:19:40;;;;;;;20.60;12.30;;;;;;;20.79;31.67;100513.67;103453;1295;61314;-80
2023/12/13 06:22:15;;;;;;;15.90;12.00;;;;;;;20.81;31.71;100513.51;103215;1293;61342;-79
2023/12/13 06:24:41;;;;;;;16.80;12.10;;;;;;;20.85;31.60;100523.25;103282;1294;74587;-81
2023/12/13 06:27:07;;;;;;;16.70;12.50;;;;;;;20.88;31.57;100526.66;103462;1294;61261;-81
2023/12/13 06:29:33;;;;;;;16.30;12.00;;;;;;;20.91;31.62;100524.38;103716;1294;61781;-80
2023/12/13 06:31:58;;;;;;;18.40;13.00;;;;;;;20.92;31.61;100516.21;103465;1296;61499;-78
2023/12/13 06:34:24;;;;;;;16.30;12.30;;;;;;;20.93;31.50;100507.41;103521;1294;61273;-79
2023/12/13 06:36:50;;;;;;;14.70;11.80;;;;;;;20.93;31.63;100503.67;103553;1294;61406;-79
2023/12/13 06:39:16;;;;;;;16.60;12.10;;;;;;;20.92;31.59;100493.70;103579;1295;61247;-80
2023/12/13 06:41:42;;;;;;;16.50;11.90;;;;;;;20.91;31.76;100482.66;103538;1296;61202;-79
2023/12/13 06:44:08;;;;;;;19.50;13.20;;;;;;;20.91;31.80;100477.69;103699;1295;61359;-80
2023/12/13 06:46:33;;;;;;;18.60;13.70;;;;;;;20.90;31.80;100493.86;103793;1298;61453;-80
2023/12/13 06:48:59;;;;;;;19.60;13.30;;;;;;;20.90;31.93;100512.49;103875;1293;61259;-80
2023/12/13 06:51:25;;;;;;;20.50;13.00;;;;;;;20.90;31.81;100507.09;103816;1293;61365;-79
2023/12/13 06:53:50;;;;;;;19.60;13.00;;;;;;;20.91;31.92;100517.09;103633;1293;64464;-80
2023/12/13 06:56:20;;;;;;;27.80;13.90;;;;;;;20.87;31.95;100523.21;103786;1295;73495;-80
2023/12/13 06:58:48;;;;;;;26.70;14.90;;;;;;;20.84;32.06;100517.39;103513;1294;61750;-80
2023/12/13 07:01:13;;;;;;;35.90;16.10;;;;;;;20.82;32.23;100513.45;103449;1295;60534;-79
2023/12/13 07:03:39;;;;;;;31.80;15.90;;;;;;;20.79;32.24;100511.20;104027;1293;61401;-79
2023/12/13 07:06:05;;;;;;;28.60;15.90;;;;;;;20.77;32.37;100513.29;103814;1296;61243;-80
2023/12/13 07:08:30;;;;;;;26.20;14.60;;;;;;;20.75;32.39;100501.59;103781;1294;61420;-81
2023/12/13 07:10:56;;;;;;;26.80;14.10;;;;;;;20.76;32.57;100504.38;104137;1298;60552;-81
2023/12/13 07:13:22;;;;;;;25.00;13.80;;;;;;;20.76;32.48;100512.23;104271;1293;59719;-80
2023/12/13 07:15:47;;;;;;;25.10;14.50;;;;;;;20.77;32.54;100503.61;103613;1293;59588;-82
2023/12/13 07:18:13;;;;;;;22.10;13.80;;;;;;;20.78;32.44;100504.80;103416;1296;61300;-80
2023/12/13 07:20:38;;;;;;;24.70;15.20;;;;;;;20.78;32.47;100501.23;103456;1295;61217;-81
2023/12/13 07:23:05;;;;;;;25.20;14.60;;;;;;;20.78;32.58;100505.33;103271;1295;61400;-81
2023/12/13 07:25:31;;;;;;;24.70;14.60;;;;;;;20.77;32.38;100505.38;103561;1296;60707;-82
2023/12/13 07:27:58;;;;;;;22.90;14.70;;;;;;;20.78;32.40;100507.30;103542;1294;59394;-80
2023/12/13 07:30:23;;;;;;;24.60;14.10;;;;;;;20.78;32.25;100508.73;103539;1293;60400;-80
2023/12/13 07:32:50;;;;;;;24.10;15.30;;;;;;;20.77;32.30;100500.55;103090;1296;61453;-80
2023/12/13 07:35:17;;;;;;;24.00;14.90;;;;;;;20.77;32.31;100492.17;102985;1296;63255;-80
2023/12/13 07:37:45;;;;;;;23.90;15.30;;;;;;;20.76;32.33;100487.02;102943;1299;645627;-80
2023/12/13 07:40:16;;;;;;;23.80;15.60;;;;;;;20.77;32.19;100483.38;103249;1296;60527;-80
2023/12/13 07:42:42;;;;;;;23.40;15.30;;;;;;;20.76;32.20;100475.78;103306;1293;74459;-80
2023/12/13 07:45:10;;;;;;;25.90;15.40;;;;;;;20.75;32.20;100480.31;103469;1298;61408;-82
2023/12/13 07:47:38;;;;;;;23.80;15.80;;;;;;;20.75;32.22;100481.78;103361;1295;61401;-80
2023/12/13 07:50:07;;;;;;;26.00;15.30;;;;;;;20.74;32.09;100479.67;104312;1295;72342;-81
2023/12/13 07:52:33;;;;;;;25.20;15.70;;;;;;;20.74;32.18;100474.48;103883;1293;61613;-81
2023/12/13 07:54:59;;;;;;;30.40;16.00;;;;;;;20.74;32.29;100467.33;104254;1294;61265;-81
2023/12/13 07:57:24;;;;;;;27.10;15.70;;;;;;;20.73;32.33;100462.45;104195;1295;61343;-81
2023/12/13 07:59:51;;;;;;;30.50;16.20;;;;;;;20.70;32.59;100450.34;103960;1293;61196;-79
2023/12/13 08:02:20;;;;;;;28.50;15.30;;;;;;;20.68;32.72;100440.05;103673;1294;61397;-82
2023/12/13 08:04:46;;;;;;;27.10;15.10;;;;;;;20.68;32.91;100437.57;104648;1293;60928;-82
2023/12/13 08:07:12;;;;;;;27.90;15.30;;;;;;;20.66;32.78;100431.23;104615;1297;61281;-81
2023/12/13 08:09:37;;;;;;;25.00;14.20;;;;;;;20.65;32.96;100420.41;104616;1296;61298;-82
2023/12/13 08:12:03;;;;;;;27.00;16.10;;;;;;;20.62;33.07;100412.06;104744;1293;61335;-82
2023/12/13 08:14:30;;;;;;;26.70;15.70;;;;;;;20.59;32.96;100411.38;104538;1293;62060;-83
2023/12/13 08:16:57;;;;;;;25.60;14.80;;;;;;;20.55;33.01;100410.43;104437;1295;61477;-82
2023/12/13 08:19:22;;;;;;;26.40;15.30;;;;;;;20.52;33.04;100415.13;104693;1294;61323;-81
2023/12/13 08:21:48;;;;;;;27.50;16.30;;;;;;;20.49;32.92;100414.63;104417;1294;64384;-81
2023/12/13 08:24:14;;;;;;;30.90;16.60;;;;;;;20.49;32.87;100416.48;104769;1296;59179;-81
2023/12/13 08:26:40;;;;;;;26.10;16.00;;;;;;;20.50;32.69;100424.40;104851;1295;61318;-80
2023/12/13 08:29:06;;;;;;;23.10;14.30;;;;;;;20.53;32.72;100429.71;104566;1295;61288;-80
2023/12/13 08:31:31;;;;;;;25.60;14.70;;;;;;;20.58;32.82;100439.36;104597;1294;59364;-81
2023/12/13 08:33:57;;;;;;;26.80;14.70;;;;;;;20.63;32.91;100439.55;104496;1294;59721;-81
2023/12/13 08:36:23;;;;;;;27.90;14.90;;;;;;;20.67;32.86;100430.09;104901;1293;59149;-80
2023/12/13 08:38:48;;;;;;;27.40;14.70;;;;;;;20.72;33.10;100419.92;104833;1293;59426;-80
2023/12/13 08:41:14;;;;;;;28.70;14.30;;;;;;;20.77;33.22;100422.95;104920;1295;61247;-81
2023/12/13 08:43:40;;;;;;;24.80;14.00;;;;;;;20.81;33.38;100420.86;104622;1295;73417;-81
2023/12/13 08:46:06;;;;;;;22.00;13.40;;;;;;;20.87;33.54;100418.63;104847;1296;63016;-81
2023/12/13 08:48:32;;;;;;;22.60;12.80;;;;;;;20.91;33.55;100422.61;104514;1294;60205;-80
2023/12/13 08:50:57;;;;;;;23.50;12.20;;;;;;;20.95;33.73;100428.38;104403;1296;59896;-80
2023/12/13 08:53:24;;;;;;;22.30;12.40;;;;;;;20.98;33.70;100418.31;104509;1295;61374;-80
2023/12/13 08:55:50;;;;;;;23.80;12.50;;;;;;;21.01;33.87;100411.27;104334;1293;60024;-81
2023/12/13 08:58:15;;;;;;;28.30;12.40;;;;;;;21.04;34.15;100414.13;103931;1293;64688;-80
2023/12/13 09:00:41;;;;;;;25.90;12.20;;;;;;;21.05;34.50;100403.80;103942;1296;61326;-80
2023/12/13 09:03:08;;;;;;;29.90;13.50;;;;;;;21.07;34.62;100385.63;103749;1296;61391;-82
2023/12/13 09:05:37;;;;;;;28.40;12.80;;;;;;;21.07;34.82;100372.53;103597;1293;72503;-81
2023/12/13 09:08:04;;;;;;;30.90;13.10;;;;;;;21.07;34.95;100363.08;103490;1295;61397;-80
2023/12/13 09:10:29;;;;;;;24.70;12.80;;;;;;;21.06;35.03;100345.98;103350;1293;61332;-81
2023/12/13 09:12:55;;;;;;;24.00;12.10;;;;;;;21.06;35.16;100334.16;103546;1296;61348;-81
2023/12/13 09:15:21;;;;;;;29.70;11.90;;;;;;;21.04;35.20;100332.67;104108;1294;61148;-81
2023/12/13 09:17:47;;;;;;;28.00;12.20;;;;;;;21.04;35.32;100331.25;104336;1295;61135;-82
2023/12/13 09:20:16;;;;;;;24.70;12.20;;;;;;;21.04;35.59;100325.17;104414;1294;61825;-81
2023/12/13 09:22:42;;;;;;;20.60;12.20;;;;;;;21.03;35.54;100318.10;104042;1296;61464;-82
2023/12/13 09:25:16;;;;;;;24.90;11.90;;;;;;;21.02;35.77;100318.91;104368;1296;59458;-82
2023/12/13 09:27:43;;;;;;;23.90;12.50;;;;;;;21.01;35.83;100320.05;104416;1300;74467;-81
2023/12/13 09:30:09;;;;;;;20.80;11.90;;;;;;;21.00;35.85;100325.33;103954;1294;61189;-80
2023/12/13 09:32:36;;;;;;;26.40;12.30;;;;;;;21.00;36.03;100323.40;103533;1299;61383;-80
2023/12/13 09:35:02;;;;;;;22.30;12.20;;;;;;;20.98;36.10;100311.89;103664;1296;61342;-81
2023/12/13 09:37:28;;;;;;;24.20;11.50;;;;;;;20.98;36.09;100299.59;103441;1295;61516;-81
2023/12/13 09:39:53;;;;;;;24.40;11.30;;;;;;;20.95;36.25;100297.95;103479;1295;61403;-81
2023/12/13 09:42:19;;;;;;;25.90;11.70;;;;;;;20.94;36.26;100302.17;103646;1294;61334;-80
2023/12/13 09:44:48;;;;;;;19.80;11.60;;;;;;;20.92;36.48;100295.13;103584;1296;61297;-81
2023/12/13 09:47:14;;;;;;;22.80;11.30;;;;;;;20.91;36.43;100288.27;103849;1294;72515;-81
2023/12/13 09:49:39;;;;;;;23.00;11.10;;;;;;;20.89;36.56;100289.84;104698;1296;61493;-82
2023/12/13 09:52:08;;;;;;;19.20;13.10;;;;;;;20.85;36.58;100285.90;104854;1296;59554;-81
2023/12/13 09:54:41;;;;;;;26.10;12.10;;;;;;;20.74;36.31;100280.66;104745;1295;61748;-81
2023/12/13 09:57:06;;;;;;;31.60;12.50;;;;;;;20.56;36.15;100284.84;104789;1293;72349;-81
2023/12/13 09:59:32;;;;;;;30.80;12.50;;;;;;;20.44;36.22;100286.66;104341;1296;60048;-81
2023/12/13 10:01:58;;;;;;;20.20;12.30;;;;;;;20.26;35.96;100281.98;104804;1298;61420;-82
2023/12/13 10:04:26;;;;;;;20.70;12.40;;;;;;;20.12;36.26;100284.12;104877;1295;59773;-82
2023/12/13 10:06:51;;;;;;;21.00;11.50;;;;;;;19.96;35.97;100288.30;104707;1298;60111;-80
2023/12/13 10:09:17;;;;;;;34.60;11.80;;;;;;;19.86;36.16;100290.46;104596;1294;61697;-82
2023/12/13 10:11:42;;;;;;;25.40;11.80;;;;;;;19.81;36.13;100293.52;104770;1298;61358;-81
2023/12/13 10:14:08;;;;;;;24.40;10.60;;;;;;;19.78;36.07;100287.31;104810;1295;61331;-81
2023/12/13 10:16:40;;;;;;;21.50;10.80;;;;;;;19.80;36.14;100285.03;104913;1298;61327;-82
2023/12/13 10:19:08;;;;;;;21.90;11.10;;;;;;;19.83;36.24;100289.83;104908;1295;72744;-82
2023/12/13 10:21:35;;;;;;;20.80;11.20;;;;;;;19.85;36.33;100286.48;104751;1294;75160;-83
2023/12/13 10:24:01;;;;;;;20.50;10.50;;;;;;;19.87;36.47;100277.75;104225;1296;61259;-80
2023/12/13 10:26:27;;;;;;;18.30;11.00;;;;;;;19.89;36.44;100268.28;104413;1295;60365;-81
2023/12/13 10:28:53;;;;;;;16.80;10.10;;;;;;;19.92;36.62;100259.31;104135;1294;62940;-81
2023/12/13 10:31:22;;;;;;;19.50;10.30;;;;;;;19.95;36.59;100257.31;104259;1294;61410;-82
2023/12/13 10:33:47;;;;;;;26.10;11.30;;;;;;;19.97;36.71;100255.20;104262;1294;61307;-81
2023/12/13 10:36:13;;;;;;;20.00;10.40;;;;;;;20.00;36.85;100252.31;104303;1294;59477;-81
2023/12/13 10:38:39;;;;;;;23.40;10.90;;;;;;;20.04;36.92;100252.01;104451;1295;59413;-82
2023/12/13 10:41:06;;;;;;;18.00;11.00;;;;;;;20.08;36.93;100240.67;104372;1296;61413;-81
2023/12/13 10:43:32;;;;;;;16.90;10.40;;;;;;;20.10;36.97;100232.06;104293;1295;59117;-82
2023/12/13 10:46:01;;;;;;;15.10;9.90;;;;;;;20.13;37.15;100229.90;104334;1296;60282;-82
2023/12/13 10:48:37;;;;;;;20.50;10.80;;;;;;;20.15;37.02;100220.80;104078;1293;72249;-83
2023/12/13 10:51:03;;;;;;;20.20;9.90;;;;;;;20.15;37.15;100212.59;104324;1296;74581;-81
2023/12/13 10:53:33;;;;;;;19.40;10.40;;;;;;;20.15;37.18;100207.95;104170;1293;61202;-81
2023/12/13 10:55:59;;;;;;;;;;;;;;;20.15;37.33;100203.15;104354;1295;61210;-81
2023/12/13 10:58:27;;;;;;;19.80;11.70;;;;;;;20.10;37.42;100200.64;103938;1299;61241;-83